createdAt,value
2017-10-30T00:01:35.170Z,5.68
2017-10-30T00:04:04.007Z,6.93
2017-10-30T00:06:32.066Z,6.22
2017-10-30T00:09:00.116Z,8.77
2017-10-30T00:11:28.933Z,6.20
2017-10-30T00:13:56.981Z,5.60
2017-10-30T00:16:25.042Z,7.97
2017-10-30T00:18:53.498Z,5.53
2017-10-30T00:21:21.570Z,7.05
2017-10-30T00:23:49.619Z,6.60
2017-10-30T00:26:17.666Z,6.10
2017-10-30T00:28:45.742Z,6.72
2017-10-30T00:31:13.798Z,5.65
2017-10-30T00:33:41.900Z,6.60
2017-10-30T00:36:10.688Z,6.00
2017-10-30T00:38:38.763Z,6.12
2017-10-30T00:41:06.810Z,6.47
2017-10-30T00:43:34.857Z,6.93
2017-10-30T00:46:04.282Z,6.10
2017-10-30T00:48:32.246Z,6.68
2017-10-30T00:51:00.313Z,5.90
2017-10-30T00:53:28.361Z,6.50
2017-10-30T00:55:57.190Z,5.37
2017-10-30T00:58:25.263Z,6.00
2017-10-30T01:00:53.319Z,5.80
2017-10-30T01:03:21.814Z,5.03
2017-10-30T01:05:49.879Z,6.43
2017-10-30T01:08:17.925Z,6.72
2017-10-30T01:10:46.758Z,5.45
2017-10-30T01:13:15.214Z,5.95
2017-10-30T01:15:43.261Z,5.82
2017-10-30T01:18:12.686Z,5.87
2017-10-30T01:20:41.080Z,6.60
2017-10-30T01:23:09.891Z,6.55
2017-10-30T01:25:37.953Z,7.03
2017-10-30T01:28:06.014Z,6.37
2017-10-30T01:30:34.085Z,7.00
2017-10-30T01:33:02.138Z,5.72
2017-10-30T01:35:30.188Z,6.18
2017-10-30T01:37:58.262Z,6.53
2017-10-30T01:40:27.074Z,7.10
2017-10-30T01:42:55.134Z,6.53
2017-10-30T01:45:23.968Z,6.95
2017-10-30T01:47:52.021Z,6.10
2017-10-30T01:50:20.082Z,5.70
2017-10-30T01:52:48.133Z,6.68
2017-10-30T01:55:16.969Z,7.40
2017-10-30T01:57:45.032Z,6.62
2017-10-30T02:00:13.078Z,6.87
2017-10-30T02:02:41.148Z,6.80
2017-10-30T02:05:10.550Z,7.00
2017-10-30T02:07:38.549Z,6.20
2017-10-30T02:10:06.586Z,6.90
2017-10-30T02:12:35.434Z,7.15
2017-10-30T02:15:03.484Z,7.40
2017-10-30T02:17:31.529Z,6.72
2017-10-30T02:19:59.995Z,6.35
2017-10-30T02:22:28.822Z,6.20
2017-10-30T02:24:56.882Z,5.70
2017-10-30T02:27:24.930Z,6.97
2017-10-30T02:29:53.766Z,7.85
2017-10-30T02:32:21.845Z,7.00
2017-10-30T02:34:49.881Z,7.45
2017-10-30T02:37:17.934Z,6.28
2017-10-30T02:39:46.759Z,6.93
2017-10-30T02:42:14.806Z,6.75
2017-10-30T02:44:42.882Z,8.80
2017-10-30T02:47:10.934Z,7.82
2017-10-30T02:49:39.746Z,6.62
2017-10-30T02:52:07.810Z,6.82
2017-10-30T02:54:35.859Z,8.60
2017-10-30T02:57:03.926Z,7.40
2017-10-30T02:59:32.398Z,7.07
2017-10-30T03:02:00.451Z,7.30
2017-10-30T03:04:28.521Z,7.25
2017-10-30T03:06:57.718Z,7.40
2017-10-30T03:09:25.785Z,7.00
2017-10-30T03:11:54.230Z,7.45
2017-10-30T03:14:22.297Z,7.90
2017-10-30T03:16:51.518Z,7.25
2017-10-30T03:19:20.310Z,7.07
2017-10-30T03:21:49.129Z,5.97
2017-10-30T03:24:17.177Z,6.22
2017-10-30T03:26:46.018Z,7.87
2017-10-30T03:29:14.834Z,6.50
2017-10-30T03:31:43.651Z,6.68
2017-10-30T03:34:11.718Z,6.15
2017-10-30T03:36:39.771Z,6.30
2017-10-30T03:39:07.834Z,6.65
2017-10-30T03:41:35.906Z,7.37
2017-10-30T03:44:03.949Z,5.97
2017-10-30T03:46:31.999Z,6.25
2017-10-30T03:49:00.068Z,6.57
2017-10-30T03:51:28.527Z,7.75
2017-10-30T03:53:56.586Z,7.45
2017-10-30T03:56:24.630Z,6.12
2017-10-30T03:58:53.102Z,7.10
2017-10-30T04:01:21.142Z,6.78
2017-10-30T04:03:49.207Z,7.37
2017-10-30T04:06:17.252Z,6.62
2017-10-30T04:08:45.321Z,7.50
2017-10-30T04:11:13.382Z,7.55
2017-10-30T04:13:41.438Z,7.15
2017-10-30T04:16:09.502Z,6.65
2017-10-30T04:18:38.322Z,6.78
2017-10-30T04:21:06.374Z,6.07
2017-10-30T04:23:35.202Z,6.40
2017-10-30T04:26:03.250Z,6.35
2017-10-30T04:28:31.326Z,6.50
2017-10-30T04:30:59.370Z,6.10
2017-10-30T04:33:28.190Z,5.60
2017-10-30T04:35:57.035Z,6.78
2017-10-30T04:38:25.086Z,5.43
2017-10-30T04:40:53.139Z,5.80
2017-10-30T04:43:21.204Z,5.45
2017-10-30T04:45:49.250Z,5.47
2017-10-30T04:48:18.082Z,5.22
2017-10-30T04:50:46.153Z,6.72
2017-10-30T04:53:14.203Z,5.65
2017-10-30T04:55:42.300Z,6.05
2017-10-30T04:58:10.333Z,7.40
2017-10-30T05:00:39.155Z,7.20
2017-10-30T05:03:07.218Z,7.12
2017-10-30T05:05:35.273Z,6.07
2017-10-30T05:08:03.347Z,5.30
2017-10-30T05:10:31.403Z,6.78
2017-10-30T05:13:00.217Z,5.18
2017-10-30T05:15:28.282Z,6.60
2017-10-30T05:17:56.347Z,6.75
2017-10-30T05:20:24.427Z,7.68
2017-10-30T05:22:52.466Z,6.15
2017-10-30T05:25:21.306Z,6.30
2017-10-30T05:27:49.750Z,6.72
2017-10-30T05:30:17.798Z,6.40
2017-10-30T05:32:45.866Z,8.30
2017-10-30T05:35:14.696Z,7.80
2017-10-30T05:37:42.742Z,7.03
2017-10-30T05:40:11.579Z,7.22
2017-10-30T05:42:39.630Z,7.25
2017-10-30T05:45:07.682Z,6.25
2017-10-30T05:47:36.510Z,7.25
2017-10-30T05:50:04.578Z,6.35
2017-10-30T05:52:32.652Z,6.12
2017-10-30T05:55:00.702Z,6.70
2017-10-30T05:57:28.747Z,6.53
2017-10-30T05:59:57.590Z,7.72
2017-10-30T06:02:25.639Z,6.55
2017-10-30T06:04:53.697Z,7.82
2017-10-30T06:07:22.539Z,8.52
2017-10-30T06:09:51.341Z,7.53
2017-10-30T06:12:20.167Z,7.35
2017-10-30T06:14:48.258Z,8.18
2017-10-30T06:17:16.318Z,8.80
2017-10-30T06:19:44.371Z,7.43
2017-10-30T06:22:13.574Z,9.05
2017-10-30T06:24:42.989Z,7.57
2017-10-30T06:27:10.966Z,9.00
2017-10-30T06:29:39.014Z,6.80
2017-10-30T06:32:07.842Z,6.68
2017-10-30T06:34:35.905Z,8.38
2017-10-30T06:37:03.961Z,8.15
2017-10-30T06:39:32.029Z,7.55
2017-10-30T06:42:00.095Z,7.15
2017-10-30T06:44:28.910Z,7.75
2017-10-30T06:46:56.974Z,8.10
2017-10-30T06:49:25.058Z,10.43
2017-10-30T06:51:54.250Z,7.10
2017-10-30T06:54:22.339Z,8.05
2017-10-30T06:56:50.787Z,8.48
2017-10-30T06:59:18.841Z,7.32
2017-10-30T07:01:47.658Z,8.48
2017-10-30T07:04:15.727Z,7.87
2017-10-30T07:06:43.778Z,7.18
2017-10-30T07:09:12.612Z,6.78
2017-10-30T07:11:40.666Z,7.35
2017-10-30T07:14:08.734Z,6.68
2017-10-30T07:16:37.174Z,7.25
2017-10-30T07:19:05.646Z,7.65
2017-10-30T07:21:33.701Z,7.97
2017-10-30T07:24:02.163Z,8.52
2017-10-30T07:26:30.221Z,6.90
2017-10-30T07:28:59.417Z,7.70
2017-10-30T07:31:28.246Z,7.45
2017-10-30T07:33:56.322Z,6.10
2017-10-30T07:36:24.384Z,7.43
2017-10-30T07:38:53.197Z,8.43
2017-10-30T07:41:21.282Z,7.35
2017-10-30T07:43:49.306Z,6.97
2017-10-30T07:46:17.376Z,8.63
2017-10-30T07:48:45.477Z,9.48
2017-10-30T07:51:13.498Z,7.25
2017-10-30T07:53:41.571Z,8.18
2017-10-30T07:56:09.623Z,7.15
2017-10-30T07:58:38.451Z,7.53
2017-10-30T08:01:06.503Z,8.10
2017-10-30T08:03:35.288Z,8.45
2017-10-30T08:06:03.354Z,8.32
2017-10-30T08:08:31.786Z,7.45
2017-10-30T08:10:59.846Z,7.25
2017-10-30T08:13:28.662Z,8.15
2017-10-30T08:15:56.741Z,7.62
2017-10-30T08:18:24.786Z,8.00
2017-10-30T08:20:52.838Z,6.05
2017-10-30T08:23:20.903Z,7.32
2017-10-30T08:25:48.948Z,7.12
2017-10-30T08:28:17.034Z,7.40
2017-10-30T08:30:45.520Z,6.93
2017-10-30T08:33:13.571Z,7.65
2017-10-30T08:35:42.416Z,7.28
2017-10-30T08:38:10.462Z,6.40
2017-10-30T08:40:39.652Z,7.25
2017-10-30T08:43:07.718Z,6.65
2017-10-30T08:45:35.766Z,6.70
2017-10-30T08:48:04.591Z,7.10
2017-10-30T08:50:32.658Z,7.90
2017-10-30T08:53:00.710Z,6.90
2017-10-30T08:55:28.770Z,8.63
2017-10-30T08:57:57.591Z,8.02
2017-10-30T09:00:26.435Z,7.95
2017-10-30T09:02:55.284Z,7.65
2017-10-30T09:05:23.716Z,7.07
2017-10-30T09:07:52.164Z,7.35
2017-10-30T09:10:20.218Z,8.52
2017-10-30T09:12:48.297Z,7.32
2017-10-30T09:15:16.346Z,7.53
2017-10-30T09:17:44.421Z,9.45
2017-10-30T09:20:12.475Z,6.50
2017-10-30T09:22:40.921Z,6.85
2017-10-30T09:25:10.327Z,5.75
2017-10-30T09:27:39.063Z,5.72
2017-10-30T09:30:07.125Z,7.12
2017-10-30T09:32:35.194Z,7.15
2017-10-30T09:35:03.258Z,7.82
2017-10-30T09:37:32.438Z,8.10
2017-10-30T09:40:01.274Z,6.03
2017-10-30T09:42:29.319Z,6.60
2017-10-30T09:44:57.393Z,7.50
2017-10-30T09:47:25.462Z,6.57
2017-10-30T09:49:54.870Z,6.70
2017-10-30T09:52:23.242Z,6.35
2017-10-30T09:54:51.290Z,6.97
2017-10-30T09:57:20.130Z,6.57
2017-10-30T09:59:48.579Z,6.47
2017-10-30T10:02:16.630Z,7.05
2017-10-30T10:04:45.458Z,7.18
2017-10-30T10:07:13.537Z,6.20
2017-10-30T10:09:41.606Z,6.30
2017-10-30T10:12:09.654Z,6.90
2017-10-30T10:14:37.726Z,7.22
2017-10-30T10:17:05.774Z,6.70
2017-10-30T10:19:34.986Z,6.53
2017-10-30T10:22:03.447Z,8.18
2017-10-30T10:24:31.494Z,7.32
2017-10-30T10:26:59.557Z,6.72
2017-10-30T10:29:27.614Z,6.60
2017-10-30T10:31:55.702Z,6.85
2017-10-30T10:34:24.522Z,6.18
2017-10-30T10:36:52.584Z,6.75
2017-10-30T10:39:20.655Z,7.07
2017-10-30T10:41:48.746Z,6.50
2017-10-30T10:44:17.578Z,5.80
2017-10-30T10:46:45.639Z,6.05
2017-10-30T10:49:14.475Z,6.45
2017-10-30T10:51:42.555Z,6.12
2017-10-30T10:54:11.030Z,7.20
2017-10-30T10:56:39.086Z,5.62
2017-10-30T10:59:07.905Z,5.55
2017-10-30T11:01:35.978Z,5.07
2017-10-30T11:04:04.432Z,5.65
2017-10-30T11:06:32.515Z,6.15
2017-10-30T11:09:01.704Z,4.15
2017-10-30T11:11:29.758Z,4.72
2017-10-30T11:13:58.598Z,5.55
2017-10-30T11:16:27.426Z,5.70
2017-10-30T11:18:55.894Z,4.62
2017-10-30T11:21:23.954Z,4.50
2017-10-30T11:23:52.787Z,4.15
2017-10-30T11:26:20.864Z,5.00
2017-10-30T11:28:48.922Z,4.05
2017-10-30T11:31:16.995Z,4.20
2017-10-30T11:33:45.071Z,3.60
2017-10-30T11:36:13.122Z,3.35
2017-10-30T11:38:41.166Z,3.25
2017-10-30T11:41:09.998Z,3.70
2017-10-30T11:43:38.065Z,4.18
2017-10-30T11:46:06.122Z,3.30
2017-10-30T11:48:34.942Z,3.30
2017-10-30T11:51:02.994Z,3.37
2017-10-30T11:53:31.062Z,3.58
2017-10-30T11:55:59.130Z,3.67
2017-10-30T11:58:27.204Z,3.33
2017-10-30T12:00:55.646Z,3.40
2017-10-30T12:03:24.486Z,3.62
2017-10-30T12:05:52.536Z,2.85
2017-10-30T12:08:20.616Z,2.92
2017-10-30T12:10:49.434Z,3.95
2017-10-30T12:13:17.482Z,3.10
2017-10-30T12:15:45.941Z,2.85
2017-10-30T12:18:13.998Z,3.08
2017-10-30T12:20:42.835Z,3.33
2017-10-30T12:23:10.886Z,2.85
2017-10-30T12:25:38.942Z,2.62
2017-10-30T12:28:08.514Z,3.22
2017-10-30T12:30:36.571Z,2.25
2017-10-30T12:33:05.403Z,2.95
2017-10-30T12:35:34.602Z,2.95
2017-10-30T12:38:03.055Z,3.15
2017-10-30T12:40:32.465Z,3.05
2017-10-30T12:43:01.198Z,2.80
2017-10-30T12:45:29.264Z,3.10
2017-10-30T12:47:57.706Z,3.35
2017-10-30T12:50:26.170Z,2.97
2017-10-30T12:52:54.631Z,3.42
2017-10-30T12:55:22.687Z,3.05
2017-10-30T12:57:50.769Z,3.05
2017-10-30T13:00:18.853Z,3.33
2017-10-30T13:02:46.878Z,2.95
2017-10-30T13:05:15.714Z,2.95
2017-10-30T13:07:44.544Z,2.65
2017-10-30T13:10:12.605Z,2.50
2017-10-30T13:12:40.658Z,3.30
2017-10-30T13:15:08.819Z,2.97
2017-10-30T13:17:37.598Z,3.37
2017-10-30T13:20:05.672Z,2.30
2017-10-30T13:22:33.751Z,2.50
2017-10-30T13:25:01.777Z,3.03
2017-10-30T13:27:30.238Z,4.22
2017-10-30T13:29:58.290Z,2.90
2017-10-30T13:32:26.765Z,3.47
2017-10-30T13:34:54.817Z,2.33
2017-10-30T13:37:22.875Z,2.95
2017-10-30T13:39:50.972Z,3.00
2017-10-30T13:42:19.031Z,3.25
2017-10-30T13:44:47.110Z,2.78
2017-10-30T13:47:15.941Z,3.35
2017-10-30T13:49:44.013Z,3.17
2017-10-30T13:52:12.066Z,2.85
2017-10-30T13:54:40.122Z,3.08
2017-10-30T13:57:08.190Z,2.28
2017-10-30T13:59:36.270Z,2.58
2017-10-30T14:02:04.717Z,3.40
2017-10-30T14:04:32.770Z,2.60
2017-10-30T14:07:01.610Z,2.40
2017-10-30T14:09:29.668Z,2.62
2017-10-30T14:11:57.722Z,2.47
2017-10-30T14:14:26.666Z,2.55
2017-10-30T14:16:55.126Z,2.50
2017-10-30T14:19:23.194Z,2.15
2017-10-30T14:21:52.661Z,2.22
2017-10-30T14:24:21.490Z,2.40
2017-10-30T14:26:49.546Z,2.70
2017-10-30T14:29:17.613Z,2.00
2017-10-30T14:31:45.669Z,2.40
2017-10-30T14:34:13.726Z,2.53
2017-10-30T14:36:42.563Z,2.28
2017-10-30T14:39:11.386Z,2.10
2017-10-30T14:41:39.453Z,2.25
2017-10-30T14:44:09.030Z,1.85
2017-10-30T14:46:37.102Z,2.20
2017-10-30T14:49:05.149Z,1.87
2017-10-30T14:51:33.601Z,2.00
2017-10-30T14:54:03.034Z,2.95
2017-10-30T14:56:31.001Z,1.80
2017-10-30T14:58:59.051Z,1.65
2017-10-30T15:01:27.890Z,1.62
2017-10-30T15:03:56.342Z,2.35
2017-10-30T15:06:24.390Z,1.65
2017-10-30T15:08:53.233Z,1.58
2017-10-30T15:11:21.293Z,2.05
2017-10-30T15:13:49.365Z,1.98
2017-10-30T15:16:17.822Z,1.98
2017-10-30T15:18:45.874Z,1.75
2017-10-30T15:21:14.711Z,1.85
2017-10-30T15:23:43.530Z,2.60
2017-10-30T15:26:11.604Z,2.00
2017-10-30T15:28:39.658Z,2.72
2017-10-30T15:31:07.718Z,2.10
2017-10-30T15:33:36.199Z,1.62
2017-10-30T15:36:04.262Z,2.50
2017-10-30T15:38:33.670Z,1.95
2017-10-30T15:41:01.636Z,2.42
2017-10-30T15:43:29.698Z,2.00
2017-10-30T15:45:58.571Z,2.25
2017-10-30T15:48:27.031Z,1.40
2017-10-30T15:50:55.496Z,2.55
2017-10-30T15:53:23.562Z,2.37
2017-10-30T15:55:52.977Z,2.83
2017-10-30T15:58:21.730Z,2.33
2017-10-30T16:00:50.542Z,1.92
2017-10-30T16:03:18.636Z,2.25
2017-10-30T16:05:46.783Z,2.47
2017-10-30T16:08:15.644Z,2.25
2017-10-30T16:10:43.708Z,2.87
2017-10-30T16:13:11.767Z,2.83
2017-10-30T16:15:40.960Z,1.87
2017-10-30T16:18:09.798Z,2.37
2017-10-30T16:20:37.846Z,1.95
2017-10-30T16:23:05.894Z,2.75
2017-10-30T16:25:33.958Z,2.40
2017-10-30T16:28:02.406Z,2.05
2017-10-30T16:30:30.462Z,2.95
2017-10-30T16:32:58.542Z,2.65
2017-10-30T16:35:26.619Z,2.85
2017-10-30T16:37:54.678Z,4.80
2017-10-30T16:40:22.733Z,2.60
2017-10-30T16:42:50.802Z,2.58
2017-10-30T16:45:18.858Z,2.62
2017-10-30T16:47:46.929Z,3.37
2017-10-30T16:50:14.985Z,3.95
2017-10-30T16:52:43.821Z,2.25
2017-10-30T16:55:11.878Z,2.97
2017-10-30T16:57:39.958Z,2.70
2017-10-30T17:00:08.018Z,2.72
2017-10-30T17:02:36.105Z,2.85
2017-10-30T17:05:04.902Z,2.30
2017-10-30T17:07:32.966Z,2.40
2017-10-30T17:10:01.026Z,2.47
2017-10-30T17:12:29.078Z,2.72
2017-10-30T17:14:57.129Z,2.10
2017-10-30T17:17:25.963Z,2.53
2017-10-30T17:19:54.018Z,2.05
2017-10-30T17:22:22.085Z,2.53
2017-10-30T17:24:50.162Z,2.85
2017-10-30T17:27:18.211Z,3.80
2017-10-30T17:29:47.050Z,3.50
2017-10-30T17:32:16.443Z,2.10
2017-10-30T17:34:44.426Z,2.40
2017-10-30T17:37:12.488Z,2.20
2017-10-30T17:39:40.541Z,2.50
2017-10-30T17:42:08.614Z,2.85
2017-10-30T17:44:37.074Z,2.90
2017-10-30T17:47:06.481Z,3.30
2017-10-30T17:49:34.860Z,4.65
2017-10-30T17:52:03.694Z,3.45
2017-10-30T17:54:31.758Z,6.55
2017-10-30T17:56:59.843Z,4.90
2017-10-30T17:59:28.303Z,12.50
2017-10-30T18:01:56.395Z,21.62
2017-10-30T18:04:24.462Z,15.63
2017-10-30T18:06:52.918Z,7.07
2017-10-30T18:09:20.991Z,4.03
2017-10-30T18:11:50.398Z,6.05
2017-10-30T18:14:18.379Z,7.68
2017-10-30T18:16:48.307Z,3.33
2017-10-30T18:19:16.363Z,4.55
2017-10-30T18:21:44.426Z,4.07
2017-10-30T18:24:12.499Z,5.65
2017-10-30T18:26:40.975Z,3.53
2017-10-30T18:29:09.422Z,3.58
2017-10-30T18:31:38.981Z,3.58
2017-10-30T18:34:07.056Z,3.17
2017-10-30T18:36:35.138Z,3.08
2017-10-30T18:39:03.206Z,3.37
2017-10-30T18:41:31.276Z,3.30
2017-10-30T18:43:59.714Z,2.85
2017-10-30T18:46:28.172Z,7.18
2017-10-30T18:48:57.453Z,15.15
2017-10-30T18:51:25.914Z,4.68
2017-10-30T18:53:53.957Z,3.85
2017-10-30T18:56:22.022Z,12.55
2017-10-30T18:58:50.094Z,13.02
2017-10-30T19:01:18.546Z,14.25
2017-10-30T19:03:47.386Z,15.30
2017-10-30T19:06:16.201Z,9.27
2017-10-30T19:08:45.781Z,6.85
2017-10-30T19:11:13.821Z,9.82
2017-10-30T19:13:42.658Z,6.03
2017-10-30T19:16:10.719Z,6.20
2017-10-30T19:18:39.184Z,6.25
2017-10-30T19:21:07.238Z,10.00
2017-10-30T19:23:35.697Z,7.70
2017-10-30T19:26:04.548Z,14.15
2017-10-30T19:28:32.608Z,13.13
2017-10-30T19:31:02.390Z,12.25
2017-10-30T19:33:31.499Z,9.98
2017-10-30T19:35:59.563Z,10.10
2017-10-30T19:38:28.403Z,8.70
2017-10-30T19:40:57.227Z,5.68
2017-10-30T19:43:26.074Z,11.52
2017-10-30T19:45:54.121Z,9.55
2017-10-30T19:48:22.242Z,12.60
2017-10-30T19:50:50.293Z,6.20
2017-10-30T19:53:18.389Z,5.20
2017-10-30T19:55:46.450Z,5.10
2017-10-30T19:58:15.638Z,3.42
2017-10-30T20:00:43.710Z,3.50
2017-10-30T20:03:13.106Z,4.00
2017-10-30T20:05:46.858Z,4.20
2017-10-30T20:08:21.403Z,4.03
2017-10-30T20:10:55.216Z,4.20
2017-10-30T20:13:23.654Z,4.15
2017-10-30T20:15:51.697Z,4.45
2017-10-30T20:18:19.762Z,3.12
2017-10-30T20:20:47.827Z,3.75
2017-10-30T20:23:15.870Z,3.05
2017-10-30T20:25:43.958Z,2.87
2017-10-30T20:28:12.742Z,3.53
2017-10-30T20:30:40.823Z,3.72
2017-10-30T20:33:09.633Z,3.95
2017-10-30T20:35:37.685Z,3.30
2017-10-30T20:38:06.521Z,3.00
2017-10-30T20:40:35.347Z,3.30
2017-10-30T20:43:03.393Z,3.08
2017-10-30T20:45:31.836Z,3.45
2017-10-30T20:47:59.994Z,4.00
2017-10-30T20:50:28.038Z,3.40
2017-10-30T20:52:56.091Z,3.05
2017-10-30T20:55:24.554Z,3.40
2017-10-30T20:57:52.606Z,3.58
2017-10-30T21:00:21.571Z,3.72
2017-10-30T21:02:50.365Z,4.28
2017-10-30T21:05:19.564Z,2.87
2017-10-30T21:07:47.602Z,3.50
2017-10-30T21:10:16.438Z,3.62
2017-10-30T21:12:45.250Z,3.50
2017-10-30T21:15:13.302Z,3.10
2017-10-30T21:17:42.126Z,3.80
2017-10-30T21:20:11.529Z,3.33
2017-10-30T21:22:41.014Z,4.00
2017-10-30T21:25:09.065Z,3.40
2017-10-30T21:27:37.143Z,4.07
2017-10-30T21:30:06.330Z,2.85
2017-10-30T21:32:34.386Z,3.30
2017-10-30T21:35:02.459Z,3.40
2017-10-30T21:37:30.511Z,3.40
2017-10-30T21:39:59.342Z,4.00
2017-10-30T21:42:27.531Z,4.18
2017-10-30T21:44:55.601Z,3.53
2017-10-30T21:47:24.050Z,4.18
2017-10-30T21:49:52.102Z,3.90
2017-10-30T21:52:20.174Z,4.70
2017-10-30T21:54:48.230Z,4.10
2017-10-30T21:57:17.038Z,3.80
2017-10-30T21:59:45.098Z,4.20
2017-10-30T22:02:14.526Z,4.45
2017-10-30T22:04:42.486Z,5.47
2017-10-30T22:07:10.538Z,4.47
2017-10-30T22:09:39.394Z,4.62
2017-10-30T22:12:07.462Z,4.50
2017-10-30T22:14:35.898Z,4.37
2017-10-30T22:17:03.963Z,3.37
2017-10-30T22:19:32.025Z,5.03
2017-10-30T22:22:00.861Z,4.43
2017-10-30T22:24:28.909Z,5.12
2017-10-30T22:26:56.974Z,5.70
2017-10-30T22:29:25.022Z,4.72
2017-10-30T22:31:53.851Z,4.60
2017-10-30T22:34:22.294Z,4.28
2017-10-30T22:36:51.131Z,4.53
2017-10-30T22:39:19.177Z,5.37
2017-10-30T22:41:47.226Z,5.87
2017-10-30T22:44:16.062Z,4.60
2017-10-30T22:46:44.112Z,5.22
2017-10-30T22:49:12.186Z,6.10
2017-10-30T22:51:40.253Z,6.30
2017-10-30T22:54:08.326Z,4.80
2017-10-30T22:56:36.394Z,5.00
2017-10-30T22:59:04.454Z,5.28
2017-10-30T23:01:33.272Z,4.95
2017-10-30T23:04:01.334Z,4.43
2017-10-30T23:06:29.399Z,5.72
2017-10-30T23:08:57.447Z,5.60
2017-10-30T23:11:26.274Z,6.05
2017-10-30T23:13:54.328Z,5.93
2017-10-30T23:16:22.398Z,6.05
2017-10-30T23:18:50.450Z,7.60
2017-10-30T23:21:19.271Z,7.35
2017-10-30T23:23:47.334Z,7.82
2017-10-30T23:26:15.382Z,7.95
2017-10-30T23:28:44.214Z,6.60
2017-10-30T23:31:12.258Z,5.50
2017-10-30T23:33:40.318Z,4.68
2017-10-30T23:36:09.517Z,6.50
2017-10-30T23:38:38.338Z,5.40
2017-10-30T23:41:06.807Z,5.95
2017-10-30T23:43:34.863Z,10.32
2017-10-30T23:46:03.705Z,6.55
2017-10-30T23:48:31.755Z,7.05
2017-10-30T23:50:59.806Z,4.97
2017-10-30T23:53:27.874Z,6.10
2017-10-30T23:55:55.938Z,5.32
2017-10-30T23:58:24.766Z,4.78
